Arica, Arica Chacalluta International Airport (SCAR)

NameArica Chacalluta International Airport
CityArica
CountryChile
ICAOSCAR
IATAARI
Altitude51 m
CoordinatesGoogle Map
Live Air TrafficLiveATC.net
METARSCAR 171000Z 30005KT 9999 OVC025 17/13 Q1016
2019-10-17 10:00:00 Wind: West-Northwest (300°) 2.57 m/s - Visibility: > 10000 m - Temperature: 17 °C - Dew point: 13 °C - Humidity: 77.5% - Pressure: 1016 hPa

Sorry, no flights used the airport in this database.